Time;durP1;ratioP1;P1;durP2;ratioP2;P2;SDS_P1;SDS_P2;PMS_P1;PMS_P2;Temp;Humidity;BMP_temperature;BMP_pressure;BME280_temperature;BME280_humidity;BME280_pressure;Samples;Min_cycle;Max_cycle;Signal;HPM_P1;HPM_P2
2023/10/30 00:01:47;;;;;;;8.18;7.57;;;;;;;;;;5056228;28;20043;-70
2023/10/30 00:04:13;;;;;;;8.30;7.63;;;;;;;;;;5055247;28;20036;-69
2023/10/30 00:06:39;;;;;;;8.25;7.68;;;;;;;;;;5051079;28;20161;-69
2023/10/30 00:09:05;;;;;;;8.25;7.65;;;;;;;;;;5048710;28;20050;-70
2023/10/30 00:11:30;;;;;;;7.95;7.45;;;;;;;;;;5052302;28;20037;-69
2023/10/30 00:13:56;;;;;;;8.57;7.38;;;;;;;;;;5052632;28;20553;-69
2023/10/30 00:16:21;;;;;;;8.10;7.60;;;;;;;;;;5050066;28;20040;-69
2023/10/30 00:18:48;;;;;;;8.27;7.78;;;;;;;;;;5049830;28;20041;-70
2023/10/30 00:21:14;;;;;;;7.93;7.43;;;;;;;;;;5046059;28;20506;-70
2023/10/30 00:23:39;;;;;;;7.90;7.40;;;;;;;;;;5052946;28;20040;-70
2023/10/30 00:26:05;;;;;;;8.65;8.07;;;;;;;;;;5052539;28;20047;-70
2023/10/30 00:28:32;;;;;;;9.02;8.27;;;;;;;;;;5057200;28;20747;-69
2023/10/30 00:30:59;;;;;;;9.27;8.48;;;;;;;;;;5045550;28;20650;-68
2023/10/30 00:33:25;;;;;;;9.00;8.15;;;;;;;;;;5041129;28;20039;-70
2023/10/30 00:35:50;;;;;;;8.70;8.00;;;;;;;;;;5036632;28;20189;-69
2023/10/30 00:38:16;;;;;;;8.02;7.43;;;;;;;;;;5033253;28;20090;-69
2023/10/30 00:40:42;;;;;;;8.43;7.93;;;;;;;;;;5048471;28;20029;-70
2023/10/30 00:43:07;;;;;;;7.88;7.38;;;;;;;;;;5029988;28;20305;-69
2023/10/30 00:45:33;;;;;;;8.02;7.53;;;;;;;;;;5046639;28;20075;-69
2023/10/30 00:47:58;;;;;;;8.07;7.57;;;;;;;;;;5043030;28;20040;-69
2023/10/30 00:50:24;;;;;;;8.07;7.55;;;;;;;;;;5040171;28;20032;-69
2023/10/30 00:52:49;;;;;;;7.97;7.47;;;;;;;;;;5047120;28;20124;-70
2023/10/30 00:55:15;;;;;;;8.52;8.02;;;;;;;;;;5047153;28;20037;-69
2023/10/30 00:57:40;;;;;;;8.10;7.47;;;;;;;;;;5041466;28;20463;-69
2023/10/30 01:00:07;;;;;;;8.00;7.50;;;;;;;;;;5041685;28;20048;-69
2023/10/30 01:02:34;;;;;;;7.88;7.18;;;;;;;;;;5052315;28;20417;-70
2023/10/30 01:04:59;;;;;;;8.30;7.80;;;;;;;;;;5042189;28;20482;-69
2023/10/30 01:07:25;;;;;;;8.48;7.70;;;;;;;;;;5039190;28;20039;-69
2023/10/30 01:09:50;;;;;;;8.30;7.80;;;;;;;;;;5041083;28;20051;-69
2023/10/30 01:12:16;;;;;;;7.95;7.45;;;;;;;;;;5049049;28;20041;-69
2023/10/30 01:14:42;;;;;;;8.10;7.57;;;;;;;;;;5039414;28;20036;-69
2023/10/30 01:17:08;;;;;;;8.32;7.82;;;;;;;;;;5031990;28;20041;-69
2023/10/30 01:19:33;;;;;;;8.60;7.75;;;;;;;;;;5048988;28;20047;-70
2023/10/30 01:21:59;;;;;;;8.10;7.57;;;;;;;;;;5039924;28;20521;-69
2023/10/30 01:24:25;;;;;;;7.90;7.45;;;;;;;;;;5030775;28;20033;-70
2023/10/30 01:26:51;;;;;;;7.80;7.30;;;;;;;;;;5048515;28;20036;-70
2023/10/30 01:29:16;;;;;;;8.00;7.50;;;;;;;;;;5037985;28;20040;-69
2023/10/30 01:31:42;;;;;;;8.13;7.53;;;;;;;;;;5030135;28;20028;-68
2023/10/30 01:34:08;;;;;;;7.88;7.40;;;;;;;;;;5044510;28;20474;-68
2023/10/30 01:36:33;;;;;;;8.02;7.53;;;;;;;;;;5042177;28;20032;-69
2023/10/30 01:38:59;;;;;;;8.30;7.80;;;;;;;;;;5047727;28;20044;-69
2023/10/30 01:41:25;;;;;;;7.65;7.25;;;;;;;;;;5035135;28;20094;-69
2023/10/30 01:43:50;;;;;;;7.90;7.40;;;;;;;;;;5044201;28;20040;-69
2023/10/30 01:46:16;;;;;;;8.00;7.60;;;;;;;;;;5039376;28;20041;-70
2023/10/30 01:48:44;;;;;;;7.93;7.43;;;;;;;;;;5050541;28;20041;-70
2023/10/30 01:51:11;;;;;;;8.15;7.65;;;;;;;;;;5037804;28;20042;-70
2023/10/30 01:53:38;;;;;;;8.85;8.07;;;;;;;;;;5045903;28;20029;-69
2023/10/30 01:56:05;;;;;;;8.18;7.68;;;;;;;;;;5050469;28;20036;-69
2023/10/30 01:58:31;;;;;;;8.60;7.97;;;;;;;;;;5030183;28;20399;-68
2023/10/30 02:00:58;;;;;;;8.02;7.43;;;;;;;;;;5031059;28;20039;-69
2023/10/30 02:03:23;;;;;;;8.15;7.55;;;;;;;;;;5041323;28;20041;-69
2023/10/30 02:05:50;;;;;;;7.50;7.00;;;;;;;;;;5049272;28;20049;-70
2023/10/30 02:08:16;;;;;;;7.40;7.00;;;;;;;;;;5045092;28;20040;-69
2023/10/30 02:10:42;;;;;;;7.20;6.80;;;;;;;;;;5049448;28;20090;-69
2023/10/30 02:13:08;;;;;;;7.70;7.20;;;;;;;;;;5036739;28;20072;-69
2023/10/30 02:15:34;;;;;;;7.50;7.10;;;;;;;;;;5033275;28;20888;-69
2023/10/30 02:18:00;;;;;;;8.00;7.40;;;;;;;;;;5045030;28;20090;-70
2023/10/30 02:20:27;;;;;;;7.78;7.38;;;;;;;;;;5043900;28;20450;-68
2023/10/30 02:22:52;;;;;;;7.90;7.30;;;;;;;;;;5024426;28;20140;-69
2023/10/30 02:25:19;;;;;;;8.10;7.60;;;;;;;;;;5048712;28;20043;-70
2023/10/30 02:27:44;;;;;;;8.15;7.65;;;;;;;;;;5051465;28;20024;-69
2023/10/30 02:30:13;;;;;;;7.57;7.15;;;;;;;;;;5038137;28;20044;-69
2023/10/30 02:32:42;;;;;;;8.25;7.65;;;;;;;;;;5051031;28;20028;-70
2023/10/30 02:35:16;;;;;;;7.87;7.27;;;;;;;;;;5042449;28;20128;-69
2023/10/30 02:37:43;;;;;;;7.90;7.30;;;;;;;;;;5030790;28;20044;-69
2023/10/30 02:40:09;;;;;;;8.05;7.53;;;;;;;;;;5041228;28;20059;-70
2023/10/30 02:42:35;;;;;;;7.30;6.90;;;;;;;;;;5048414;28;20626;-70
2023/10/30 02:45:01;;;;;;;7.82;7.28;;;;;;;;;;5034568;28;20037;-68
2023/10/30 02:47:28;;;;;;;7.93;7.22;;;;;;;;;;5036052;28;20032;-69
2023/10/30 02:49:54;;;;;;;7.68;7.18;;;;;;;;;;5038407;28;20043;-69
2023/10/30 02:52:19;;;;;;;7.63;7.03;;;;;;;;;;5044574;28;20037;-69
2023/10/30 02:54:45;;;;;;;10.57;7.28;;;;;;;;;;5038688;28;20033;-70
2023/10/30 02:57:10;;;;;;;8.32;7.72;;;;;;;;;;5039632;28;20106;-69
2023/10/30 02:59:36;;;;;;;9.57;7.95;;;;;;;;;;5050274;28;20119;-70
2023/10/30 03:02:02;;;;;;;8.85;8.13;;;;;;;;;;5034560;28;20264;-70
2023/10/30 03:04:29;;;;;;;8.60;7.97;;;;;;;;;;5047235;28;20694;-69
2023/10/30 03:06:58;;;;;;;7.90;7.40;;;;;;;;;;5052174;28;20059;-69
2023/10/30 03:09:25;;;;;;;8.93;8.30;;;;;;;;;;5042798;28;20044;-70
2023/10/30 03:11:50;;;;;;;8.70;8.00;;;;;;;;;;5052075;28;20078;-69
2023/10/30 03:14:16;;;;;;;8.73;8.23;;;;;;;;;;5049014;28;20041;-69
2023/10/30 03:16:41;;;;;;;8.55;7.95;;;;;;;;;;5035667;28;20067;-69
2023/10/30 03:19:09;;;;;;;8.88;8.27;;;;;;;;;;5025456;28;20033;-68
2023/10/30 03:21:34;;;;;;;8.57;7.90;;;;;;;;;;5036535;28;20044;-69
2023/10/30 03:24:02;;;;;;;8.40;7.90;;;;;;;;;;5048493;28;20025;-68
2023/10/30 03:26:27;;;;;;;8.43;7.72;;;;;;;;;;5047115;28;20044;-69
2023/10/30 03:28:53;;;;;;;7.90;7.40;;;;;;;;;;5047811;28;20040;-69
2023/10/30 03:31:18;;;;;;;8.13;7.57;;;;;;;;;;5038087;28;20089;-70
2023/10/30 03:33:44;;;;;;;7.78;7.38;;;;;;;;;;5052295;28;20110;-69
2023/10/30 03:36:09;;;;;;;8.13;7.32;;;;;;;;;;5044417;28;20505;-68
2023/10/30 03:38:35;;;;;;;8.57;7.93;;;;;;;;;;5045567;28;20546;-70
2023/10/30 03:41:00;;;;;;;8.38;7.78;;;;;;;;;;5046827;28;20822;-70
2023/10/30 03:43:26;;;;;;;8.35;7.85;;;;;;;;;;5036153;28;20043;-68
2023/10/30 03:45:52;;;;;;;8.15;7.50;;;;;;;;;;5044233;28;20047;-69
2023/10/30 03:48:18;;;;;;;8.80;8.20;;;;;;;;;;5034925;28;20149;-69
2023/10/30 03:50:43;;;;;;;8.65;8.15;;;;;;;;;;5045245;28;20590;-69
2023/10/30 03:53:09;;;;;;;8.90;8.30;;;;;;;;;;5044703;28;20062;-70
2023/10/30 03:55:35;;;;;;;9.60;8.90;;;;;;;;;;5045147;28;20249;-68
2023/10/30 03:58:02;;;;;;;8.88;8.27;;;;;;;;;;5049713;28;20044;-69
2023/10/30 04:00:28;;;;;;;9.50;8.82;;;;;;;;;;5048211;28;20045;-68
2023/10/30 04:02:53;;;;;;;8.70;8.00;;;;;;;;;;5049731;28;20036;-68
2023/10/30 04:05:19;;;;;;;9.38;8.77;;;;;;;;;;5049219;28;20119;-69
2023/10/30 04:07:44;;;;;;;9.48;8.45;;;;;;;;;;5045315;28;20474;-70
2023/10/30 04:10:10;;;;;;;8.52;8.02;;;;;;;;;;5044874;28;20033;-68
2023/10/30 04:12:35;;;;;;;8.38;7.88;;;;;;;;;;5048745;28;20508;-69
2023/10/30 04:15:01;;;;;;;8.27;7.78;;;;;;;;;;5051960;28;20512;-69
2023/10/30 04:17:26;;;;;;;9.60;8.90;;;;;;;;;;5050275;28;20041;-69
2023/10/30 04:19:52;;;;;;;9.00;8.40;;;;;;;;;;5049810;28;20033;-69
2023/10/30 04:22:18;;;;;;;9.15;8.55;;;;;;;;;;5045902;28;20033;-67
2023/10/30 04:24:43;;;;;;;9.07;8.38;;;;;;;;;;5051188;28;20454;-68
2023/10/30 04:27:09;;;;;;;8.93;8.32;;;;;;;;;;5054285;28;20049;-67
2023/10/30 04:29:34;;;;;;;9.68;9.07;;;;;;;;;;5051021;28;20033;-68
2023/10/30 04:32:00;;;;;;;10.75;10.05;;;;;;;;;;5045901;28;20036;-68
2023/10/30 04:34:25;;;;;;;10.60;9.80;;;;;;;;;;5051264;28;20032;-69
2023/10/30 04:36:51;;;;;;;11.18;10.25;;;;;;;;;;5051336;28;20090;-68
2023/10/30 04:39:17;;;;;;;10.70;9.85;;;;;;;;;;5042950;28;20039;-67
2023/10/30 04:41:42;;;;;;;11.38;10.57;;;;;;;;;;5051214;28;20039;-67
2023/10/30 04:44:08;;;;;;;9.73;9.02;;;;;;;;;;5046869;28;20029;-70
2023/10/30 04:46:34;;;;;;;10.68;9.77;;;;;;;;;;5053332;28;20056;-70
2023/10/30 04:48:59;;;;;;;11.10;10.00;;;;;;;;;;5055390;28;20071;-69
2023/10/30 04:51:28;;;;;;;9.93;9.23;;;;;;;;;;5051482;28;20045;-68
2023/10/30 04:53:56;;;;;;;9.93;9.23;;;;;;;;;;5055169;28;20020;-69
2023/10/30 04:56:22;;;;;;;8.47;7.97;;;;;;;;;;5051510;28;20299;-69
2023/10/30 04:58:48;;;;;;;10.52;9.77;;;;;;;;;;5055068;28;20645;-69
2023/10/30 05:01:13;;;;;;;13.65;10.93;;;;;;;;;;5056900;28;20032;-69
2023/10/30 05:03:39;;;;;;;11.35;10.50;;;;;;;;;;5055255;28;20437;-70
2023/10/30 05:06:05;;;;;;;11.55;10.45;;;;;;;;;;5060557;28;20033;-69
2023/10/30 05:08:32;;;;;;;12.20;11.10;;;;;;;;;;5053952;28;20040;-69
2023/10/30 05:11:00;;;;;;;11.93;11.02;;;;;;;;;;5063960;28;20040;-69
2023/10/30 05:13:26;;;;;;;11.83;10.83;;;;;;;;;;5055979;28;20025;-69
2023/10/30 05:15:51;;;;;;;12.70;11.60;;;;;;;;;;5059002;28;20594;-70
2023/10/30 05:18:21;;;;;;;11.65;10.65;;;;;;;;;;5052805;28;20028;-70
2023/10/30 05:20:47;;;;;;;11.52;10.50;;;;;;;;;;5033165;28;20075;-69
2023/10/30 05:23:12;;;;;;;11.70;10.80;;;;;;;;;;5051163;28;20479;-69
2023/10/30 05:25:38;;;;;;;11.75;10.88;;;;;;;;;;5053362;28;20087;-69
2023/10/30 05:28:03;;;;;;;11.18;10.38;;;;;;;;;;5056727;28;20036;-68
2023/10/30 05:30:30;;;;;;;11.10;10.30;;;;;;;;;;5048589;28;20045;-69
2023/10/30 05:32:56;;;;;;;10.77;9.98;;;;;;;;;;5050546;28;20426;-69
2023/10/30 05:35:21;;;;;;;13.18;11.98;;;;;;;;;;5051979;28;20040;-69
2023/10/30 05:37:47;;;;;;;12.85;11.77;;;;;;;;;;5049473;28;20036;-69
2023/10/30 05:40:14;;;;;;;12.02;10.98;;;;;;;;;;5054204;28;20174;-69
2023/10/30 05:42:39;;;;;;;12.77;11.68;;;;;;;;;;5051028;28;20489;-70
2023/10/30 05:45:06;;;;;;;13.27;11.85;;;;;;;;;;5053591;28;20759;-69
2023/10/30 05:47:32;;;;;;;13.85;12.63;;;;;;;;;;5035872;28;20501;-69
2023/10/30 05:49:57;;;;;;;13.05;11.95;;;;;;;;;;5049451;28;20040;-70
2023/10/30 05:52:23;;;;;;;15.10;12.95;;;;;;;;;;5048208;28;20123;-70
2023/10/30 05:54:50;;;;;;;12.85;11.65;;;;;;;;;;5047573;28;20051;-69
2023/10/30 05:57:15;;;;;;;13.80;12.65;;;;;;;;;;5056372;28;20048;-70
2023/10/30 05:59:41;;;;;;;14.52;13.23;;;;;;;;;;5048787;28;20032;-71
2023/10/30 06:02:07;;;;;;;14.40;13.10;;;;;;;;;;5053402;28;20041;-68
2023/10/30 06:04:32;;;;;;;13.52;12.32;;;;;;;;;;5049920;28;20127;-68
2023/10/30 06:06:58;;;;;;;13.00;11.80;;;;;;;;;;5040079;28;20123;-70
2023/10/30 06:09:26;;;;;;;14.02;12.73;;;;;;;;;;5046377;28;20373;-70
2023/10/30 06:11:52;;;;;;;12.80;11.67;;;;;;;;;;5051133;28;20036;-68
2023/10/30 06:14:18;;;;;;;12.68;11.57;;;;;;;;;;5041300;28;20039;-69
2023/10/30 06:16:44;;;;;;;13.50;12.25;;;;;;;;;;5054476;28;20426;-68
2023/10/30 06:19:10;;;;;;;12.10;11.02;;;;;;;;;;5047021;28;20048;-68
2023/10/30 06:21:39;;;;;;;11.07;10.15;;;;;;;;;;5052573;28;20094;-68
2023/10/30 06:24:08;;;;;;;11.53;10.60;;;;;;;;;;5046367;28;20033;-71
2023/10/30 06:26:34;;;;;;;12.07;10.88;;;;;;;;;;5047310;28;20291;-68
2023/10/30 06:29:00;;;;;;;12.07;11.05;;;;;;;;;;5047781;28;20940;-68
2023/10/30 06:31:25;;;;;;;10.75;9.85;;;;;;;;;;5049558;28;20053;-69
2023/10/30 06:33:51;;;;;;;11.77;10.77;;;;;;;;;;5051460;28;20048;-69
2023/10/30 06:36:16;;;;;;;10.55;9.75;;;;;;;;;;5044577;28;20029;-69
2023/10/30 06:38:42;;;;;;;11.63;10.63;;;;;;;;;;5049385;28;20591;-69
2023/10/30 06:41:07;;;;;;;11.50;10.65;;;;;;;;;;5049149;28;20501;-69
2023/10/30 06:43:33;;;;;;;11.15;10.18;;;;;;;;;;5047316;28;20029;-69
2023/10/30 06:46:00;;;;;;;11.40;10.50;;;;;;;;;;5037496;28;20031;-69
2023/10/30 06:48:26;;;;;;;10.00;9.30;;;;;;;;;;5048464;28;20462;-69
2023/10/30 06:50:51;;;;;;;10.13;9.43;;;;;;;;;;5047317;28;20041;-69
2023/10/30 06:53:17;;;;;;;9.98;9.27;;;;;;;;;;5043616;28;20086;-69
2023/10/30 06:55:42;;;;;;;10.70;9.98;;;;;;;;;;5047375;28;20050;-69
2023/10/30 06:58:08;;;;;;;10.80;10.00;;;;;;;;;;5047056;28;20120;-69
2023/10/30 07:00:34;;;;;;;11.93;11.02;;;;;;;;;;5049492;28;20035;-70
2023/10/30 07:02:59;;;;;;;9.80;9.20;;;;;;;;;;5039345;28;20040;-70
2023/10/30 07:05:25;;;;;;;10.07;9.20;;;;;;;;;;5048158;28;20086;-70
2023/10/30 07:07:51;;;;;;;10.93;10.13;;;;;;;;;;5047718;28;20021;-70
2023/10/30 07:10:17;;;;;;;10.25;9.55;;;;;;;;;;5044787;28;20479;-69
2023/10/30 07:12:42;;;;;;;10.10;9.40;;;;;;;;;;5044862;28;20036;-70
2023/10/30 07:15:08;;;;;;;10.50;9.80;;;;;;;;;;5046608;28;20041;-71
2023/10/30 07:17:34;;;;;;;11.18;10.15;;;;;;;;;;5046708;28;20120;-70
2023/10/30 07:19:59;;;;;;;10.15;9.43;;;;;;;;;;5049466;28;20115;-70
2023/10/30 07:22:26;;;;;;;11.13;10.05;;;;;;;;;;5047628;28;20032;-70
2023/10/30 07:24:51;;;;;;;10.10;9.40;;;;;;;;;;5046225;28;20028;-70
2023/10/30 07:27:18;;;;;;;9.77;9.05;;;;;;;;;;5043014;28;20550;-70
2023/10/30 07:29:44;;;;;;;10.00;9.20;;;;;;;;;;5060847;28;20024;-69
2023/10/30 07:32:09;;;;;;;8.35;7.75;;;;;;;;;;5065473;28;20124;-70
2023/10/30 07:34:35;;;;;;;9.50;8.90;;;;;;;;;;5068642;28;20067;-70
2023/10/30 07:37:00;;;;;;;8.75;8.15;;;;;;;;;;5058147;28;20493;-70
2023/10/30 07:39:26;;;;;;;10.10;9.27;;;;;;;;;;5047448;28;20040;-70
2023/10/30 07:41:51;;;;;;;8.65;8.05;;;;;;;;;;5048678;28;20044;-70
2023/10/30 07:44:17;;;;;;;9.05;8.45;;;;;;;;;;5048618;28;20037;-69
2023/10/30 07:46:43;;;;;;;9.13;8.52;;;;;;;;;;5048470;28;20410;-69
2023/10/30 07:49:08;;;;;;;8.57;7.97;;;;;;;;;;5052095;28;20082;-70
2023/10/30 07:51:34;;;;;;;9.30;8.40;;;;;;;;;;5050025;28;20033;-70
2023/10/30 07:54:00;;;;;;;9.82;9.02;;;;;;;;;;5049718;28;20044;-70
2023/10/30 07:56:26;;;;;;;9.55;8.68;;;;;;;;;;5052329;28;20040;-69
2023/10/30 07:58:51;;;;;;;9.93;9.13;;;;;;;;;;5046553;28;20041;-69
2023/10/30 08:01:21;;;;;;;10.18;9.38;;;;;;;;;;5052480;28;20425;-70
2023/10/30 08:03:47;;;;;;;12.65;9.40;;;;;;;;;;5049444;28;20032;-70
2023/10/30 08:06:15;;;;;;;9.05;8.40;;;;;;;;;;5056192;28;20040;-70
2023/10/30 08:08:41;;;;;;;9.98;9.18;;;;;;;;;;5055767;28;20239;-70
2023/10/30 08:11:08;;;;;;;10.25;9.25;;;;;;;;;;5051431;28;20029;-70
2023/10/30 08:13:34;;;;;;;10.60;9.77;;;;;;;;;;5054194;28;20413;-69
2023/10/30 08:15:59;;;;;;;10.15;9.35;;;;;;;;;;5054317;28;20039;-71
2023/10/30 08:18:25;;;;;;;9.35;8.55;;;;;;;;;;5049070;28;20032;-70
2023/10/30 08:20:51;;;;;;;10.35;9.52;;;;;;;;;;5053916;28;20547;-70
2023/10/30 08:23:17;;;;;;;10.63;9.13;;;;;;;;;;5044919;28;20033;-70
2023/10/30 08:25:43;;;;;;;9.63;8.82;;;;;;;;;;5053358;28;20040;-70
2023/10/30 08:28:09;;;;;;;9.57;8.77;;;;;;;;;;5050105;28;20047;-70
2023/10/30 08:30:34;;;;;;;10.02;9.20;;;;;;;;;;5045869;28;20482;-69
2023/10/30 08:33:03;;;;;;;9.50;8.60;;;;;;;;;;5047569;28;20067;-69
2023/10/30 08:35:30;;;;;;;10.55;9.75;;;;;;;;;;5052478;28;20046;-68
2023/10/30 08:37:57;;;;;;;10.02;9.32;;;;;;;;;;5048169;28;20029;-68
2023/10/30 08:40:23;;;;;;;9.75;9.05;;;;;;;;;;5050155;28;20064;-69
2023/10/30 08:42:49;;;;;;;9.85;9.05;;;;;;;;;;5042106;28;20039;-68
2023/10/30 08:45:15;;;;;;;10.45;9.60;;;;;;;;;;5050560;28;20036;-69
2023/10/30 08:47:40;;;;;;;10.10;9.40;;;;;;;;;;5050981;28;20055;-69
2023/10/30 08:50:07;;;;;;;9.73;8.80;;;;;;;;;;5044286;28;20398;-69
2023/10/30 08:52:33;;;;;;;9.85;9.10;;;;;;;;;;5051788;28;20478;-69
2023/10/30 08:54:58;;;;;;;9.70;8.90;;;;;;;;;;5046589;28;20091;-68
2023/10/30 08:57:24;;;;;;;9.65;8.85;;;;;;;;;;5050006;28;20047;-69
2023/10/30 08:59:50;;;;;;;9.43;8.70;;;;;;;;;;5051073;28;20025;-69
2023/10/30 09:02:16;;;;;;;8.82;8.23;;;;;;;;;;5048106;28;20378;-69
2023/10/30 09:04:41;;;;;;;9.43;8.60;;;;;;;;;;5050975;28;20035;-69
2023/10/30 09:07:07;;;;;;;9.77;8.43;;;;;;;;;;5041732;28;20028;-69
2023/10/30 09:09:33;;;;;;;8.65;7.95;;;;;;;;;;5045104;28;20037;-70
2023/10/30 09:11:58;;;;;;;9.98;8.32;;;;;;;;;;5047400;28;20028;-69
2023/10/30 09:14:24;;;;;;;9.30;8.40;;;;;;;;;;5050982;28;20036;-69
2023/10/30 09:16:50;;;;;;;8.95;8.25;;;;;;;;;;5051527;28;20037;-69
2023/10/30 09:19:16;;;;;;;9.20;8.40;;;;;;;;;;5052863;28;20041;-70
2023/10/30 09:21:41;;;;;;;8.30;7.70;;;;;;;;;;5046512;28;20043;-70
2023/10/30 09:24:07;;;;;;;8.63;8.02;;;;;;;;;;5047834;28;20491;-69
2023/10/30 09:26:33;;;;;;;9.13;8.35;;;;;;;;;;5046343;28;20028;-70
2023/10/30 09:28:58;;;;;;;8.82;8.18;;;;;;;;;;5047405;28;20645;-68
2023/10/30 09:31:24;;;;;;;9.02;8.40;;;;;;;;;;5053415;28;20490;-68
2023/10/30 09:33:49;;;;;;;8.55;7.82;;;;;;;;;;5052211;28;20043;-71
2023/10/30 09:36:15;;;;;;;8.27;7.72;;;;;;;;;;5015096;28;20127;-70
2023/10/30 09:38:43;;;;;;;8.27;7.70;;;;;;;;;;5048281;28;20127;-70
2023/10/30 09:41:12;;;;;;;8.15;7.65;;;;;;;;;;5047832;28;20021;-68
2023/10/30 09:43:38;;;;;;;8.32;7.72;;;;;;;;;;5047919;28;20036;-70
2023/10/30 09:46:07;;;;;;;7.82;7.32;;;;;;;;;;5047683;28;20383;-70
2023/10/30 09:48:36;;;;;;;8.18;7.50;;;;;;;;;;5048799;28;20095;-69
2023/10/30 09:51:03;;;;;;;8.68;8.07;;;;;;;;;;5045528;28;20047;-69
2023/10/30 09:53:29;;;;;;;7.93;7.43;;;;;;;;;;5021586;28;20119;-69
2023/10/30 09:55:56;;;;;;;7.78;7.30;;;;;;;;;;5051715;28;20143;-70
2023/10/30 09:58:23;;;;;;;7.38;6.88;;;;;;;;;;5048093;28;20171;-70
2023/10/30 10:00:48;;;;;;;8.13;7.47;;;;;;;;;;5047100;28;20025;-68
2023/10/30 10:03:15;;;;;;;8.00;7.35;;;;;;;;;;5048297;28;20040;-71
2023/10/30 10:05:40;;;;;;;7.85;6.95;;;;;;;;;;5045110;28;20075;-70
2023/10/30 10:08:07;;;;;;;7.20;6.75;;;;;;;;;;5050649;28;20127;-70
2023/10/30 10:10:53;;;;;;;6.95;6.55;;;;;;;;;;5046876;28;20071;-68
2023/10/30 10:13:18;;;;;;;7.10;6.70;;;;;;;;;;5035643;28;20044;-68
2023/10/30 10:15:44;;;;;;;7.10;6.60;;;;;;;;;;5049115;28;20036;-68
2023/10/30 10:18:23;;;;;;;7.10;6.60;;;;;;;;;;5043626;28;20037;-70
2023/10/30 10:21:00;;;;;;;7.40;7.00;;;;;;;;;;5045977;28;20036;-69
2023/10/30 10:23:31;;;;;;;7.63;7.07;;;;;;;;;;5044407;28;20537;-69
2023/10/30 10:25:58;;;;;;;7.88;7.30;;;;;;;;;;5044918;28;20644;-69
2023/10/30 10:28:25;;;;;;;8.00;7.50;;;;;;;;;;5049509;28;20036;-69
2023/10/30 10:30:53;;;;;;;7.20;6.80;;;;;;;;;;5041455;28;20410;-69
2023/10/30 10:33:28;;;;;;;7.40;6.88;;;;;;;;;;5036344;28;20040;-69
2023/10/30 10:35:55;;;;;;;7.30;6.90;;;;;;;;;;5048719;28;20036;-69
2023/10/30 10:38:21;;;;;;;7.15;6.75;;;;;;;;;;5046256;28;20041;-69
2023/10/30 10:40:48;;;;;;;7.22;6.82;;;;;;;;;;5042675;28;20029;-71
2023/10/30 10:43:21;;;;;;;7.43;6.93;;;;;;;;;;5043688;28;20033;-70
2023/10/30 10:45:49;;;;;;;6.95;6.50;;;;;;;;;;5040284;28;20032;-71
2023/10/30 10:48:16;;;;;;;7.35;6.80;;;;;;;;;;5040625;28;20098;-71
2023/10/30 10:50:42;;;;;;;7.30;6.70;;;;;;;;;;5041578;28;20604;-71
2023/10/30 10:53:10;;;;;;;7.10;6.50;;;;;;;;;;5048956;28;20082;-70
2023/10/30 10:55:43;;;;;;;7.07;6.68;;;;;;;;;;5044471;28;20123;-70
2023/10/30 10:58:17;;;;;;;6.85;6.45;;;;;;;;;;5042566;28;20025;-70
2023/10/30 11:00:51;;;;;;;7.10;6.68;;;;;;;;;;5039598;28;20044;-70
2023/10/30 11:03:17;;;;;;;7.20;6.70;;;;;;;;;;5045357;28;20064;-70
2023/10/30 11:05:47;;;;;;;8.40;7.88;;;;;;;;;;5045955;28;20044;-71
2023/10/30 11:08:34;;;;;;;8.07;7.38;;;;;;;;;;5024237;28;20131;-70
2023/10/30 11:11:09;;;;;;;7.47;6.90;;;;;;;;;;5040758;28;20037;-70
2023/10/30 11:13:57;;;;;;;7.60;7.05;;;;;;;;;;5041468;28;20043;-69
2023/10/30 11:16:28;;;;;;;7.50;6.90;;;;;;;;;;5044581;28;20116;-69
2023/10/30 11:18:58;;;;;;;7.70;6.85;;;;;;;;;;5044749;28;20040;-69
2023/10/30 11:21:26;;;;;;;8.70;7.90;;;;;;;;;;5046353;28;20076;-70
2023/10/30 11:23:57;;;;;;;8.02;7.53;;;;;;;;;;5045746;28;20033;-70
2023/10/30 11:26:29;;;;;;;7.80;7.30;;;;;;;;;;5049873;28;20037;-69
2023/10/30 11:28:55;;;;;;;7.53;7.03;;;;;;;;;;5046593;28;20032;-69
2023/10/30 11:31:21;;;;;;;7.20;6.70;;;;;;;;;;5027973;28;20674;-69
2023/10/30 11:33:48;;;;;;;7.00;6.50;;;;;;;;;;5034618;28;20136;-69
2023/10/30 11:36:18;;;;;;;7.47;6.70;;;;;;;;;;5043800;28;20123;-69
2023/10/30 11:39:06;;;;;;;7.40;6.78;;;;;;;;;;5049841;28;20033;-69
2023/10/30 11:41:36;;;;;;;7.43;6.80;;;;;;;;;;5043770;28;20127;-69
2023/10/30 11:44:11;;;;;;;7.60;7.10;;;;;;;;;;5043939;28;20498;-69
2023/10/30 11:46:41;;;;;;;7.75;7.25;;;;;;;;;;5045209;28;20725;-69
2023/10/30 11:49:14;;;;;;;11.35;10.23;;;;;;;;;;5035378;28;20048;-69
2023/10/30 11:51:45;;;;;;;7.53;7.13;;;;;;;;;;5043059;28;20039;-69
2023/10/30 11:54:18;;;;;;;7.90;7.20;;;;;;;;;;5046395;28;20116;-69
2023/10/30 11:56:47;;;;;;;7.75;6.90;;;;;;;;;;5047820;28;20040;-69
2023/10/30 11:59:14;;;;;;;7.80;7.20;;;;;;;;;;5049072;28;20044;-69
2023/10/30 12:01:41;;;;;;;7.95;7.45;;;;;;;;;;5047295;28;20112;-69
2023/10/30 12:04:06;;;;;;;8.40;7.80;;;;;;;;;;5052234;28;22550;-69
2023/10/30 12:06:32;;;;;;;7.80;7.05;;;;;;;;;;5048070;28;20045;-69
2023/10/30 12:08:57;;;;;;;7.35;6.85;;;;;;;;;;5047583;28;20060;-69
2023/10/30 12:11:23;;;;;;;7.60;7.00;;;;;;;;;;5040154;28;20526;-69
2023/10/30 12:13:50;;;;;;;8.95;7.10;;;;;;;;;;5047458;28;20033;-69
2023/10/30 12:16:16;;;;;;;8.40;7.90;;;;;;;;;;5046526;28;20808;-69
2023/10/30 12:18:41;;;;;;;7.68;7.28;;;;;;;;;;5029563;28;20053;-69
2023/10/30 12:21:07;;;;;;;8.00;7.40;;;;;;;;;;5042843;28;20037;-69
2023/10/30 12:23:33;;;;;;;9.38;8.63;;;;;;;;;;5046304;28;20940;-69
2023/10/30 12:26:05;;;;;;;8.10;7.60;;;;;;;;;;5046854;28;20036;-69
2023/10/30 12:28:37;;;;;;;8.48;7.80;;;;;;;;;;5050376;28;20040;-69
2023/10/30 12:31:16;;;;;;;8.13;7.63;;;;;;;;;;5052882;28;20037;-68
2023/10/30 12:33:42;;;;;;;8.27;7.63;;;;;;;;;;5043813;28;20119;-68
2023/10/30 12:36:07;;;;;;;7.65;7.15;;;;;;;;;;5046525;28;21008;-68
2023/10/30 12:38:33;;;;;;;7.47;6.90;;;;;;;;;;5052118;28;20041;-68
2023/10/30 12:41:00;;;;;;;7.55;7.10;;;;;;;;;;5047331;28;20530;-69
2023/10/30 12:43:26;;;;;;;8.23;7.50;;;;;;;;;;5052300;28;20064;-70
2023/10/30 12:45:51;;;;;;;7.63;7.13;;;;;;;;;;5044153;28;20067;-68
2023/10/30 12:48:17;;;;;;;7.97;7.38;;;;;;;;;;5041669;28;20029;-68
2023/10/30 12:50:42;;;;;;;8.73;8.00;;;;;;;;;;5041233;28;20416;-70
2023/10/30 12:53:08;;;;;;;8.65;7.95;;;;;;;;;;5042542;28;20032;-70
2023/10/30 12:55:34;;;;;;;7.35;6.85;;;;;;;;;;5049637;28;20098;-70
2023/10/30 12:57:59;;;;;;;7.90;7.40;;;;;;;;;;5050855;28;20044;-70
2023/10/30 13:00:25;;;;;;;8.00;7.35;;;;;;;;;;5052342;28;20028;-68
2023/10/30 13:02:51;;;;;;;8.60;7.80;;;;;;;;;;5045233;28;20039;-69
2023/10/30 13:05:16;;;;;;;10.20;9.20;;;;;;;;;;5048810;28;20095;-69
2023/10/30 13:07:42;;;;;;;8.80;8.07;;;;;;;;;;5045430;28;20493;-69
2023/10/30 13:10:08;;;;;;;8.55;7.85;;;;;;;;;;5040812;28;20079;-69
2023/10/30 13:12:33;;;;;;;8.40;7.80;;;;;;;;;;5052117;28;20563;-69
2023/10/30 13:14:59;;;;;;;8.27;7.65;;;;;;;;;;5048304;28;20068;-69
2023/10/30 13:17:25;;;;;;;7.70;7.20;;;;;;;;;;5046900;28;20037;-69
2023/10/30 13:19:50;;;;;;;8.10;7.60;;;;;;;;;;5039986;28;20078;-69
2023/10/30 13:22:16;;;;;;;7.80;7.15;;;;;;;;;;5052001;28;20065;-69
2023/10/30 13:24:42;;;;;;;8.00;7.40;;;;;;;;;;5043983;28;20390;-69
2023/10/30 13:27:07;;;;;;;8.77;7.88;;;;;;;;;;5043911;28;20037;-69
2023/10/30 13:29:34;;;;;;;10.35;9.25;;;;;;;;;;5042412;28;20036;-69
2023/10/30 13:32:00;;;;;;;7.40;6.90;;;;;;;;;;5047379;28;20033;-69
2023/10/30 13:34:25;;;;;;;10.88;9.77;;;;;;;;;;5026447;28;20063;-69
2023/10/30 13:36:51;;;;;;;8.38;7.80;;;;;;;;;;5049530;28;20482;-69
2023/10/30 13:39:16;;;;;;;10.32;8.48;;;;;;;;;;5045086;28;20059;-69
2023/10/30 13:41:44;;;;;;;7.85;7.35;;;;;;;;;;5039206;28;20526;-69
2023/10/30 13:44:09;;;;;;;7.90;7.40;;;;;;;;;;5046695;28;20041;-69
2023/10/30 13:46:35;;;;;;;11.00;9.90;;;;;;;;;;5039696;28;20037;-69
2023/10/30 13:49:00;;;;;;;8.73;8.13;;;;;;;;;;5044659;28;20483;-69
2023/10/30 13:51:26;;;;;;;8.10;7.60;;;;;;;;;;5042710;28;20028;-69
2023/10/30 13:53:53;;;;;;;9.30;8.63;;;;;;;;;;5045298;28;20398;-69
2023/10/30 13:56:21;;;;;;;8.68;7.93;;;;;;;;;;5048374;28;20052;-69
2023/10/30 13:58:49;;;;;;;8.07;7.30;;;;;;;;;;5043580;28;20486;-69
2023/10/30 14:01:17;;;;;;;8.15;7.60;;;;;;;;;;5044926;28;20036;-69
2023/10/30 14:03:42;;;;;;;7.97;7.38;;;;;;;;;;5039204;28;20566;-69
2023/10/30 14:06:08;;;;;;;8.63;7.82;;;;;;;;;;5050743;28;20033;-69
2023/10/30 14:08:33;;;;;;;29.75;18.50;;;;;;;;;;5045642;28;20037;-69
2023/10/30 14:10:59;;;;;;;12.88;11.73;;;;;;;;;;5046912;28;20712;-69
2023/10/30 14:13:24;;;;;;;12.95;11.85;;;;;;;;;;5044776;28;20047;-69
2023/10/30 14:15:50;;;;;;;8.43;7.82;;;;;;;;;;5039350;28;20036;-69
2023/10/30 14:18:15;;;;;;;8.60;7.80;;;;;;;;;;5044589;28;20098;-69
2023/10/30 14:20:41;;;;;;;8.60;8.05;;;;;;;;;;5045339;28;20040;-69
2023/10/30 14:23:06;;;;;;;8.48;7.80;;;;;;;;;;5038567;28;20127;-69
2023/10/30 14:25:32;;;;;;;8.70;7.85;;;;;;;;;;5039104;28;20032;-69
2023/10/30 14:27:58;;;;;;;9.02;8.35;;;;;;;;;;5046815;28;20421;-69
2023/10/30 14:30:24;;;;;;;9.07;8.25;;;;;;;;;;5041510;28;20033;-69
2023/10/30 14:32:49;;;;;;;8.13;7.50;;;;;;;;;;5033815;28;20414;-69
2023/10/30 14:35:15;;;;;;;8.10;7.40;;;;;;;;;;5044778;28;20041;-69